createdAt,value
2022-11-21T00:00:18.579Z,2.50
2022-11-21T00:02:49.258Z,2.23
2022-11-21T00:05:20.057Z,2.77
2022-11-21T00:07:50.628Z,2.93
2022-11-21T00:10:21.492Z,2.50
2022-11-21T00:12:56.051Z,2.30
2022-11-21T00:15:28.058Z,2.20
2022-11-21T00:17:58.567Z,2.07
2022-11-21T00:20:29.085Z,2.00
2022-11-21T00:22:59.645Z,1.97
2022-11-21T00:25:30.264Z,2.20
2022-11-21T00:28:00.791Z,2.40
2022-11-21T00:30:31.352Z,2.60
2022-11-21T00:33:02.006Z,2.40
2022-11-21T00:35:33.662Z,2.17
2022-11-21T00:38:04.210Z,2.80
2022-11-21T00:40:34.755Z,2.13
2022-11-21T00:43:05.313Z,3.80
2022-11-21T00:45:35.933Z,4.60
2022-11-21T00:48:07.644Z,5.30
2022-11-21T00:50:38.219Z,8.27
2022-11-21T00:53:08.818Z,6.07
2022-11-21T00:55:39.340Z,3.33
2022-11-21T00:58:09.876Z,3.57
2022-11-21T01:00:40.483Z,6.00
2022-11-21T01:03:11.082Z,7.23
2022-11-21T01:05:41.662Z,7.13
2022-11-21T01:08:12.239Z,7.30
2022-11-21T01:10:42.779Z,7.20
2022-11-21T01:13:13.441Z,6.37
2022-11-21T01:15:43.999Z,6.13
2022-11-21T01:18:14.539Z,4.90
2022-11-21T01:20:45.088Z,5.53
2022-11-21T01:23:15.729Z,4.70
2022-11-21T01:25:46.327Z,4.60
2022-11-21T01:28:16.879Z,4.60
2022-11-21T01:30:47.500Z,4.73
2022-11-21T01:33:18.020Z,5.23
2022-11-21T01:35:48.670Z,4.77
2022-11-21T01:38:19.193Z,5.03
2022-11-21T01:40:49.742Z,4.13
2022-11-21T01:43:20.412Z,5.13
2022-11-21T01:45:59.116Z,5.43
2022-11-21T01:48:34.009Z,5.47
2022-11-21T01:51:09.003Z,5.53
2022-11-21T01:53:42.313Z,4.33
2022-11-21T01:56:13.447Z,4.10
2022-11-21T01:58:46.445Z,5.23
2022-11-21T02:01:18.208Z,5.33
2022-11-21T02:03:50.552Z,4.90
2022-11-21T02:06:21.893Z,5.27
2022-11-21T02:09:11.163Z,5.33
2022-11-21T02:11:44.966Z,5.73
2022-11-21T02:14:15.585Z,6.30
2022-11-21T02:16:46.231Z,6.80
2022-11-21T02:19:21.090Z,5.30
2022-11-21T02:21:54.852Z,5.67
2022-11-21T02:24:28.609Z,5.17
2022-11-21T02:27:00.998Z,4.80
2022-11-21T02:29:31.519Z,6.00
2022-11-21T02:32:06.349Z,5.97
2022-11-21T02:34:37.070Z,5.40
2022-11-21T02:37:09.210Z,5.73
2022-11-21T02:39:40.241Z,6.20
2022-11-21T02:42:13.741Z,5.87
2022-11-21T02:44:47.316Z,5.53
2022-11-21T02:47:17.836Z,5.80
2022-11-21T02:49:51.723Z,5.73
2022-11-21T02:52:22.263Z,5.83
2022-11-21T02:54:52.856Z,6.33
2022-11-21T02:57:23.420Z,6.03
2022-11-21T02:59:53.915Z,5.60
2022-11-21T03:02:24.500Z,5.63
2022-11-21T03:04:55.215Z,5.37
2022-11-21T03:07:25.874Z,6.43
2022-11-21T03:09:56.543Z,5.90
2022-11-21T03:12:27.123Z,5.57
2022-11-21T03:14:57.703Z,5.00
2022-11-21T03:17:28.246Z,5.27
2022-11-21T03:19:58.796Z,5.17
2022-11-21T03:22:29.439Z,5.20
2022-11-21T03:25:00.375Z,4.47
2022-11-21T03:27:30.904Z,5.33
2022-11-21T03:30:01.438Z,5.40
2022-11-21T03:32:32.029Z,5.70
2022-11-21T03:35:02.684Z,5.03
2022-11-21T03:37:33.224Z,6.10
2022-11-21T03:40:03.959Z,6.47
2022-11-21T03:42:34.467Z,5.50
2022-11-21T03:45:08.031Z,6.83
2022-11-21T03:47:38.565Z,7.50
2022-11-21T03:50:10.983Z,7.70
2022-11-21T03:52:41.510Z,8.43
2022-11-21T03:55:12.443Z,8.57
2022-11-21T03:57:42.993Z,10.27
2022-11-21T04:00:17.314Z,9.50
2022-11-21T04:02:47.856Z,9.90
2022-11-21T04:05:19.754Z,9.70
2022-11-21T04:07:50.278Z,9.20
2022-11-21T04:10:21.977Z,8.53
2022-11-21T04:12:52.571Z,8.47
2022-11-21T04:15:23.108Z,9.57
2022-11-21T04:17:53.770Z,9.00
2022-11-21T04:20:24.292Z,7.53
2022-11-21T04:22:54.806Z,9.60
2022-11-21T04:25:25.494Z,7.87
2022-11-21T04:27:58.958Z,7.90
2022-11-21T04:30:30.182Z,7.53
2022-11-21T04:33:00.732Z,9.10
2022-11-21T04:35:31.394Z,8.07
2022-11-21T04:38:02.001Z,8.13
2022-11-21T04:40:32.549Z,8.67
2022-11-21T04:43:03.144Z,10.87
2022-11-21T04:45:34.217Z,11.03
2022-11-21T04:48:04.893Z,11.13
2022-11-21T04:50:35.423Z,8.77
2022-11-21T04:53:06.094Z,8.23
2022-11-21T04:55:36.722Z,7.93
2022-11-21T04:58:07.248Z,7.30
2022-11-21T05:00:38.169Z,7.70
2022-11-21T05:03:09.537Z,8.77
2022-11-21T05:05:40.307Z,9.57
2022-11-21T05:08:10.981Z,7.87
2022-11-21T05:11:00.422Z,8.90
2022-11-21T05:13:30.995Z,8.97
2022-11-21T05:16:01.587Z,8.03
2022-11-21T05:21:11.821Z,8.57
2022-11-21T05:23:42.503Z,9.30
2022-11-21T05:26:13.244Z,9.67
2022-11-21T05:28:43.781Z,10.40
2022-11-21T05:31:14.344Z,9.23
2022-11-21T05:33:44.929Z,9.17
2022-11-21T05:36:15.454Z,9.67
2022-11-21T05:38:46.233Z,8.60
2022-11-21T05:41:17.248Z,8.27
2022-11-21T05:43:48.087Z,8.03
2022-11-21T05:46:21.041Z,8.70
2022-11-21T05:48:53.606Z,8.20
2022-11-21T05:51:24.418Z,8.43
2022-11-21T05:53:55.034Z,8.70
2022-11-21T05:56:25.727Z,8.67
2022-11-21T05:58:58.609Z,8.13
2022-11-21T06:01:46.811Z,7.13
2022-11-21T06:04:17.422Z,7.80
2022-11-21T06:06:47.951Z,7.33
2022-11-21T06:09:18.492Z,7.73
2022-11-21T06:11:48.998Z,7.37
2022-11-21T06:14:19.655Z,6.07
2022-11-21T06:16:51.617Z,6.70
2022-11-21T06:19:22.401Z,6.43
2022-11-21T06:21:52.924Z,6.13
2022-11-21T06:24:23.500Z,7.23
2022-11-21T06:26:54.030Z,7.10
2022-11-21T06:29:24.572Z,9.30
2022-11-21T06:31:56.180Z,10.10
2022-11-21T06:34:28.359Z,10.07
2022-11-21T06:37:00.029Z,10.50
2022-11-21T06:39:30.538Z,9.43
2022-11-21T06:42:02.454Z,9.37
2022-11-21T06:44:33.194Z,8.83
2022-11-21T06:47:03.723Z,9.93
2022-11-21T06:49:34.256Z,9.70
2022-11-21T06:52:04.961Z,8.37
2022-11-21T06:54:35.583Z,9.93
2022-11-21T06:57:06.398Z,8.43
2022-11-21T06:59:37.243Z,8.00
2022-11-21T07:02:07.759Z,8.03
2022-11-21T07:04:38.333Z,7.50
2022-11-21T07:07:09.176Z,7.97
2022-11-21T07:09:39.845Z,7.37
2022-11-21T07:12:28.948Z,8.47
2022-11-21T07:14:59.579Z,7.70
2022-11-21T07:17:30.126Z,7.43
2022-11-21T07:20:00.692Z,7.40
2022-11-21T07:22:31.267Z,7.93
2022-11-21T07:25:01.883Z,9.43
2022-11-21T07:27:32.446Z,7.43
2022-11-21T07:30:02.947Z,8.23
2022-11-21T07:32:33.495Z,8.10
2022-11-21T07:35:04.140Z,9.87
2022-11-21T07:37:34.736Z,9.40
2022-11-21T07:40:06.053Z,10.20
2022-11-21T07:42:36.596Z,6.50
2022-11-21T07:45:08.708Z,7.37
2022-11-21T07:47:39.345Z,7.17
2022-11-21T07:50:13.219Z,7.10
2022-11-21T07:52:43.730Z,7.00
2022-11-21T07:55:14.271Z,6.87
2022-11-21T07:57:44.921Z,7.43
2022-11-21T08:00:18.582Z,6.67
2022-11-21T08:02:49.166Z,7.20
2022-11-21T08:05:19.746Z,7.97
2022-11-21T08:07:50.376Z,6.80
2022-11-21T08:10:21.249Z,6.57
2022-11-21T08:12:51.907Z,7.77
2022-11-21T08:15:22.546Z,7.77
2022-11-21T08:17:53.055Z,7.33
2022-11-21T08:20:23.786Z,7.13
2022-11-21T08:22:54.310Z,7.37
2022-11-21T08:25:24.933Z,6.23
2022-11-21T08:27:58.458Z,6.93
2022-11-21T08:30:29.079Z,5.90
2022-11-21T08:33:00.953Z,6.20
2022-11-21T08:35:31.948Z,6.37
2022-11-21T08:38:03.761Z,6.87
2022-11-21T08:40:35.745Z,6.10
2022-11-21T08:43:08.103Z,7.47
2022-11-21T08:45:39.672Z,8.17
2022-11-21T08:48:28.838Z,7.93
2022-11-21T08:51:00.721Z,4.97
2022-11-21T08:53:31.279Z,5.00
2022-11-21T08:56:04.461Z,4.33
2022-11-21T08:58:34.117Z,4.57
2022-11-21T09:01:04.672Z,5.57
2022-11-21T09:03:35.573Z,5.57
2022-11-21T09:06:06.434Z,6.23
2022-11-21T09:08:36.986Z,4.80
2022-11-21T09:11:09.477Z,4.50
2022-11-21T09:13:40.078Z,4.27
2022-11-21T09:16:31.012Z,4.33
2022-11-21T09:19:01.565Z,4.83
2022-11-21T09:21:32.094Z,4.63
2022-11-21T09:24:02.686Z,6.10
2022-11-21T09:26:33.268Z,5.63
2022-11-21T09:29:04.648Z,6.07
2022-11-21T09:31:35.212Z,6.90
2022-11-21T09:34:05.886Z,6.20
2022-11-21T09:36:36.397Z,6.50
2022-11-21T09:39:08.182Z,7.10
2022-11-21T09:41:55.574Z,5.70
2022-11-21T09:44:41.991Z,5.97
2022-11-21T09:47:20.999Z,5.07
2022-11-21T09:49:55.353Z,6.17
2022-11-21T09:52:38.013Z,6.43
2022-11-21T09:55:13.876Z,5.47
2022-11-21T09:57:47.085Z,5.77
2022-11-21T10:00:21.190Z,5.87
2022-11-21T10:02:52.551Z,5.37
2022-11-21T10:05:26.915Z,5.10
2022-11-21T10:07:59.790Z,5.23
2022-11-21T10:10:36.814Z,4.87
2022-11-21T10:13:16.260Z,5.13
2022-11-21T10:15:58.311Z,4.90
2022-11-21T10:19:00.498Z,4.60
2022-11-21T10:21:40.234Z,5.20
2022-11-21T10:24:20.326Z,5.43
2022-11-21T10:26:54.361Z,4.93
2022-11-21T10:29:28.127Z,5.00
2022-11-21T10:32:02.360Z,5.50
2022-11-21T10:34:36.375Z,4.90
2022-11-21T10:37:12.042Z,4.37
2022-11-21T10:39:45.625Z,4.83
2022-11-21T10:42:24.427Z,4.83
2022-11-21T10:45:13.663Z,4.50
2022-11-21T10:47:44.918Z,4.33
2022-11-21T10:50:39.518Z,4.30
2022-11-21T10:53:33.874Z,4.33
2022-11-21T10:56:15.333Z,4.20
2022-11-21T10:58:48.424Z,4.60
2022-11-21T11:01:28.185Z,4.33
2022-11-21T11:04:31.020Z,4.20
2022-11-21T11:06:53.796Z,4.07
2022-11-21T11:09:32.318Z,4.57
2022-11-21T11:12:50.897Z,3.90
2022-11-21T11:15:24.162Z,3.50
2022-11-21T11:17:57.972Z,3.63
2022-11-21T11:20:35.411Z,3.60
2022-11-21T11:23:23.222Z,3.73
2022-11-21T11:25:55.844Z,4.17
2022-11-21T11:28:27.387Z,3.47
2022-11-21T11:30:59.065Z,3.07
2022-11-21T11:33:38.418Z,3.30
2022-11-21T11:36:16.113Z,3.73
2022-11-21T11:38:50.685Z,3.93
2022-11-21T11:41:42.706Z,4.37
2022-11-21T11:47:14.931Z,4.70
2022-11-21T11:50:06.335Z,4.13
2022-11-21T11:52:39.887Z,4.80
2022-11-21T11:55:17.363Z,3.93
2022-11-21T11:57:50.679Z,3.67
2022-11-21T12:00:29.076Z,4.23
2022-11-21T12:03:04.324Z,3.57
2022-11-21T12:05:35.240Z,2.73
2022-11-21T12:11:05.650Z,3.60
2022-11-21T12:13:37.623Z,3.23
2022-11-21T12:16:13.862Z,3.27
2022-11-21T12:19:05.021Z,3.90
2022-11-21T12:21:35.757Z,3.17
2022-11-21T12:24:11.899Z,3.90
2022-11-21T12:26:48.919Z,3.60
2022-11-21T12:29:27.837Z,3.33
2022-11-21T12:32:21.120Z,3.70
2022-11-21T12:35:03.987Z,3.93
2022-11-21T12:37:40.898Z,3.63
2022-11-21T12:40:22.493Z,3.57
2022-11-21T12:43:00.596Z,4.07
2022-11-21T12:45:34.158Z,3.70
2022-11-21T12:48:42.420Z,4.00
2022-11-21T12:51:52.401Z,3.90
2022-11-21T12:54:49.555Z,3.37
2022-11-21T12:57:22.225Z,3.70
2022-11-21T12:59:59.990Z,4.37
2022-11-21T13:02:36.827Z,4.07
2022-11-21T13:05:11.918Z,3.87
2022-11-21T13:07:43.577Z,3.60
2022-11-21T13:10:18.039Z,3.90
2022-11-21T13:12:51.531Z,3.80
2022-11-21T13:15:25.669Z,3.87
2022-11-21T13:17:59.607Z,3.80
2022-11-21T13:20:34.606Z,2.83
2022-11-21T13:23:07.920Z,2.60
2022-11-21T13:25:40.227Z,2.10
2022-11-21T13:28:49.683Z,1.97
2022-11-21T13:31:36.957Z,2.70
2022-11-21T13:34:12.937Z,2.27
2022-11-21T13:36:44.748Z,2.03
2022-11-21T13:39:39.814Z,2.00
2022-11-21T13:42:33.307Z,2.50
2022-11-21T13:45:43.803Z,2.70
2022-11-21T13:48:38.935Z,2.37
2022-11-21T13:51:38.741Z,1.90
2022-11-21T13:54:36.156Z,2.00
2022-11-21T13:57:25.180Z,1.57
2022-11-21T14:00:23.316Z,1.57
2022-11-21T14:03:05.006Z,2.10
2022-11-21T14:06:05.209Z,1.77
2022-11-21T14:09:08.913Z,2.70
2022-11-21T14:11:44.364Z,1.87
2022-11-21T14:14:25.396Z,2.90
2022-11-21T14:17:01.661Z,2.60
2022-11-21T14:19:34.895Z,2.20
2022-11-21T14:22:05.550Z,3.20
2022-11-21T14:24:36.459Z,3.27
2022-11-21T14:27:28.832Z,2.97
2022-11-21T14:30:00.083Z,4.67
2022-11-21T14:32:31.727Z,3.20
2022-11-21T14:35:13.982Z,4.50
2022-11-21T14:37:44.849Z,6.47
2022-11-21T14:40:18.043Z,3.23
2022-11-21T14:42:48.667Z,2.93
2022-11-21T14:45:22.069Z,2.97
2022-11-21T14:47:54.784Z,4.13
2022-11-21T14:50:30.186Z,3.10
2022-11-21T14:53:03.102Z,3.10
2022-11-21T14:55:34.881Z,3.00
2022-11-21T14:58:07.407Z,2.17
2022-11-21T15:00:59.671Z,2.17
2022-11-21T15:03:22.375Z,2.73
2022-11-21T15:06:04.569Z,3.00
2022-11-21T15:09:06.015Z,2.80
2022-11-21T15:11:06.211Z,2.60
2022-11-21T15:13:58.568Z,2.73
2022-11-21T15:16:10.041Z,2.87
2022-11-21T15:18:42.671Z,3.40
2022-11-21T15:21:17.100Z,3.00
2022-11-21T15:23:47.756Z,2.70
2022-11-21T15:26:35.691Z,2.90
2022-11-21T15:29:20.110Z,3.17
2022-11-21T15:34:45.080Z,2.57
2022-11-21T15:37:18.407Z,2.70
2022-11-21T15:39:50.910Z,3.40
2022-11-21T15:42:40.579Z,2.83
2022-11-21T15:45:28.985Z,8.23
2022-11-21T15:47:59.515Z,5.80
2022-11-21T15:50:30.033Z,6.33
2022-11-21T15:53:00.718Z,7.67
2022-11-21T15:55:32.807Z,8.07
2022-11-21T15:57:12.680Z,2.90
2022-11-21T15:58:03.350Z,7.67
2022-11-21T16:00:33.906Z,8.27
2022-11-21T16:05:43.855Z,7.27
2022-11-21T16:08:14.404Z,6.03
2022-11-21T16:10:45.083Z,5.70
2022-11-21T16:13:15.636Z,5.43
2022-11-21T16:15:47.006Z,4.73
2022-11-21T16:18:17.816Z,3.73
2022-11-21T16:20:48.582Z,6.07
2022-11-21T16:23:19.103Z,13.07
2022-11-21T16:25:56.442Z,13.53
2022-11-21T16:28:26.988Z,10.23
2022-11-21T16:31:00.119Z,9.63
2022-11-21T16:33:31.526Z,8.67
2022-11-21T16:36:02.069Z,8.30
2022-11-21T16:38:32.604Z,8.70
2022-11-21T16:41:05.724Z,8.70
2022-11-21T16:43:36.307Z,8.20
2022-11-21T16:46:10.362Z,8.70
2022-11-21T16:48:40.942Z,9.07
2022-11-21T16:51:17.133Z,6.97
2022-11-21T16:53:49.982Z,7.07
2022-11-21T16:56:20.499Z,8.00
2022-11-21T16:58:51.043Z,7.53
2022-11-21T17:01:23.408Z,9.03
2022-11-21T17:03:54.836Z,7.97
2022-11-21T17:06:27.604Z,8.30
2022-11-21T17:08:59.920Z,7.93
2022-11-21T17:11:32.186Z,8.70
2022-11-21T17:14:05.272Z,8.80
2022-11-21T17:16:37.869Z,8.90
2022-11-21T17:19:09.036Z,9.43
2022-11-21T17:21:40.093Z,22.30
2022-11-21T17:24:12.418Z,19.40
2022-11-21T17:26:43.377Z,10.03
2022-11-21T17:29:13.997Z,11.30
2022-11-21T17:31:44.619Z,14.77
2022-11-21T17:34:15.545Z,10.03
2022-11-21T17:36:46.116Z,10.40
2022-11-21T17:39:18.196Z,12.63
2022-11-21T17:41:48.803Z,10.63
2022-11-21T17:44:19.787Z,10.63
2022-11-21T17:46:50.355Z,12.37
2022-11-21T17:49:21.104Z,10.57
2022-11-21T17:51:56.459Z,11.80
2022-11-21T17:54:24.186Z,13.13
2022-11-21T17:56:57.019Z,13.10
2022-11-21T17:59:28.426Z,13.67
2022-11-21T18:01:59.610Z,13.37
2022-11-21T18:04:30.519Z,13.03
2022-11-21T18:07:01.411Z,12.77
2022-11-21T18:09:32.211Z,12.00
2022-11-21T18:12:02.977Z,12.67
2022-11-21T18:14:33.649Z,12.33
2022-11-21T18:17:04.294Z,11.90
2022-11-21T18:19:35.085Z,12.80
2022-11-21T18:22:05.678Z,11.93
2022-11-21T18:24:36.394Z,14.13
2022-11-21T18:27:07.074Z,17.27
2022-11-21T18:29:38.005Z,14.87
2022-11-21T18:32:09.032Z,14.27
2022-11-21T18:34:39.823Z,14.60
2022-11-21T18:37:10.868Z,16.53
2022-11-21T18:39:41.657Z,13.90
2022-11-21T18:42:12.321Z,14.60
2022-11-21T18:44:43.267Z,14.60
2022-11-21T18:47:20.560Z,13.63
2022-11-21T18:49:46.182Z,15.20
2022-11-21T18:52:16.803Z,15.27
2022-11-21T18:54:48.556Z,15.93
2022-11-21T18:57:19.238Z,16.93
2022-11-21T18:59:49.844Z,17.43
2022-11-21T19:02:20.464Z,17.17
2022-11-21T19:04:51.172Z,17.23
2022-11-21T19:07:22.127Z,17.33
2022-11-21T19:09:52.858Z,18.27
2022-11-21T19:12:23.511Z,17.03
2022-11-21T19:14:55.722Z,18.77
2022-11-21T19:17:26.505Z,18.80
2022-11-21T19:19:57.122Z,18.60
2022-11-21T19:22:28.006Z,17.53
2022-11-21T19:24:58.869Z,18.50
2022-11-21T19:27:29.449Z,18.07
2022-11-21T19:30:00.089Z,17.90
2022-11-21T19:32:31.148Z,17.37
2022-11-21T19:35:01.888Z,15.40
2022-11-21T19:37:32.631Z,17.13
2022-11-21T19:40:03.323Z,16.80
2022-11-21T19:42:34.038Z,15.97
2022-11-21T19:45:05.426Z,13.57
2022-11-21T19:47:36.778Z,12.60
2022-11-21T19:50:08.869Z,11.27
2022-11-21T19:52:39.631Z,10.47
2022-11-21T19:55:11.675Z,9.77
2022-11-21T19:57:42.352Z,9.20
2022-11-21T20:00:15.448Z,10.20
2022-11-21T20:02:46.149Z,9.47
2022-11-21T20:05:17.902Z,10.30
2022-11-21T20:07:48.684Z,9.27
2022-11-21T20:10:20.601Z,9.17
2022-11-21T20:12:52.047Z,7.77
2022-11-21T20:15:23.529Z,8.40
2022-11-21T20:17:54.744Z,7.77
2022-11-21T20:20:25.591Z,6.80
2022-11-21T20:22:56.261Z,7.63
2022-11-21T20:25:27.538Z,7.80
2022-11-21T20:27:58.548Z,5.90
2022-11-21T20:30:30.363Z,6.07
2022-11-21T20:33:07.179Z,5.50
2022-11-21T20:35:38.039Z,4.33
2022-11-21T20:38:08.724Z,3.77
2022-11-21T20:40:39.452Z,2.77
2022-11-21T20:43:10.194Z,2.83
2022-11-21T20:46:08.052Z,3.20
2022-11-21T20:48:18.883Z,5.90
2022-11-21T20:56:03.310Z,5.47
2022-11-21T20:58:35.548Z,5.23
2022-11-21T21:01:06.593Z,5.37
2022-11-21T21:06:18.686Z,5.57
2022-11-21T21:08:50.008Z,5.57
2022-11-21T21:11:50.471Z,5.97
2022-11-21T21:13:55.170Z,6.43
2022-11-21T21:16:29.251Z,5.93
2022-11-21T21:18:59.770Z,6.33
2022-11-21T21:21:31.903Z,6.13
2022-11-21T21:24:04.264Z,6.10
2022-11-21T21:26:42.263Z,6.97
2022-11-21T21:29:11.450Z,6.83
2022-11-21T21:31:49.611Z,7.10
2022-11-21T21:34:15.211Z,7.60
2022-11-21T21:36:45.870Z,7.33
2022-11-21T21:39:16.650Z,6.57
2022-11-21T21:41:48.011Z,6.17
2022-11-21T21:44:19.041Z,5.67
2022-11-21T21:46:49.671Z,6.37
2022-11-21T21:49:20.260Z,6.70
2022-11-21T21:51:50.930Z,6.77
2022-11-21T21:54:22.357Z,7.17
2022-11-21T21:56:52.885Z,7.03
2022-11-21T22:02:03.187Z,6.90
2022-11-21T22:04:33.939Z,7.00
2022-11-21T22:07:05.631Z,6.30
2022-11-21T22:09:36.995Z,5.53
2022-11-21T22:12:08.367Z,6.00
2022-11-21T22:14:38.970Z,7.37
2022-11-21T22:17:09.543Z,8.33
2022-11-21T22:19:40.054Z,8.30
2022-11-21T22:22:10.602Z,7.47
2022-11-21T22:24:41.486Z,12.47
2022-11-21T22:27:12.368Z,22.57
2022-11-21T22:29:42.898Z,9.93
2022-11-21T22:32:19.327Z,6.90
2022-11-21T22:34:46.613Z,7.00
2022-11-21T22:37:17.221Z,5.77
2022-11-21T22:39:47.743Z,8.33
2022-11-21T22:42:18.303Z,7.70
2022-11-21T22:44:48.946Z,8.03
2022-11-21T22:47:19.439Z,7.70
2022-11-21T22:49:49.977Z,7.07
2022-11-21T22:52:20.599Z,6.90
2022-11-21T22:54:51.214Z,7.10
2022-11-21T22:57:22.948Z,5.53
2022-11-21T22:59:53.470Z,5.73
2022-11-21T23:02:24.145Z,4.43
2022-11-21T23:04:54.873Z,4.03
2022-11-21T23:07:25.388Z,3.17
2022-11-21T23:09:56.021Z,2.97
2022-11-21T23:12:27.317Z,3.40
2022-11-21T23:14:58.016Z,3.50
2022-11-21T23:17:28.558Z,2.73
2022-11-21T23:19:59.130Z,3.10
2022-11-21T23:22:29.747Z,1.87
2022-11-21T23:25:00.392Z,1.60
2022-11-21T23:27:30.931Z,2.07
2022-11-21T23:30:01.523Z,1.87
2022-11-21T23:32:32.111Z,1.90
2022-11-21T23:35:02.735Z,2.40
2022-11-21T23:37:33.378Z,2.13
2022-11-21T23:40:03.993Z,2.43
2022-11-21T23:42:34.586Z,1.73
2022-11-21T23:45:06.352Z,1.60
2022-11-21T23:47:37.041Z,2.13
2022-11-21T23:50:09.476Z,2.80
2022-11-21T23:52:40.066Z,3.10
2022-11-21T23:55:12.208Z,2.80
2022-11-21T23:57:42.894Z,3.77
